Time;durP1;ratioP1;P1;durP2;ratioP2;P2;SDS_P1;SDS_P2;PMS_P1;PMS_P2;Temp;Humidity;BMP_temperature;BMP_pressure;BME280_temperature;BME280_humidity;BME280_pressure;Samples;Min_cycle;Max_cycle;Signal;HPM_P1;HPM_P2
2021/07/16 02:19:12;161774.00;0.54;280.10;31496.00;0.10;55.17;;;;;20.70;4.50;;;;;;2581662;55;1887;-88
2021/07/16 02:21:39;21875.00;0.07;38.52;0.00;0.00;0.62;;;;;20.70;4.70;;;;;;2567804;56;969;-87
2021/07/16 03:02:48;0.00;0.00;0.62;0.00;0.00;0.62;;;;;20.40;6.70;;;;;;2571467;56;593;-88
2021/07/16 03:05:18;132382.00;0.44;229.44;0.00;0.00;0.62;;;;;20.80;5.50;;;;;;2573595;55;1398;-89
2021/07/16 03:07:45;95215.00;0.32;165.31;8815.00;0.03;15.90;;;;;20.80;5.60;;;;;;2573612;55;926;-89
2021/07/16 03:10:16;54121.00;0.18;94.31;0.00;0.00;0.62;;;;;20.80;5.70;;;;;;2573600;55;712;-88
2021/07/16 06:10:31;0.00;0.00;0.62;0.00;0.00;0.62;;;;;21.80;3.40;;;;;;2535001;40;1894;31
2021/07/16 07:04:29;35228.00;0.12;61.63;0.00;0.00;0.62;;;;;22.70;2.50;;;;;;2569827;56;581;-87
2021/07/16 07:06:56;0.00;0.00;0.62;0.00;0.00;0.62;;;;;22.90;2.20;;;;;;2569428;56;1415;-87
2021/07/16 07:09:23;43815.00;0.15;76.49;0.00;0.00;0.62;;;;;22.60;2.40;;;;;;2569319;56;1077;-86
2021/07/16 07:11:50;0.00;0.00;0.62;0.00;0.00;0.62;;;;;22.50;3.20;;;;;;2571327;56;1124;-86
2021/07/16 07:14:17;238065.00;0.79;411.42;55620.00;0.19;96.90;;;;;22.50;2.90;;;;;;2569324;56;1136;-86
2021/07/16 07:16:44;91811.00;0.31;159.43;16875.00;0.06;29.86;;;;;22.30;3.80;;;;;;2571936;55;1322;-86
2021/07/16 07:19:11;0.00;0.00;0.62;0.00;0.00;0.62;;;;;22.40;3.70;;;;;;2570248;56;1948;-87
2021/07/16 07:21:39;0.00;0.00;0.62;0.00;0.00;0.62;;;;;22.50;3.80;;;;;;2572756;55;1704;-87
2021/07/16 07:24:06;47476.00;0.16;82.82;0.00;0.00;0.62;;;;;22.50;4.10;;;;;;2573692;55;906;-88
2021/07/16 07:26:35;259890.00;0.87;448.96;28701.00;0.10;50.33;;;;;22.60;4.40;;;;;;2573640;55;1343;-88
2021/07/16 07:29:03;17900.00;0.06;31.63;0.00;0.00;0.62;;;;;22.80;3.60;;;;;;2562911;56;911;-87
2021/07/16 07:31:30;144517.00;0.48;250.36;0.00;0.00;0.62;;;;;22.80;2.70;;;;;;2562938;56;1021;-89
2021/07/16 07:33:57;301419.00;1.00;520.36;35657.00;0.12;62.37;;;;;22.80;2.90;;;;;;2562939;56;988;-88
2021/07/16 07:36:24;182234.00;0.61;315.34;0.00;0.00;0.62;;;;;22.70;3.80;;;;;;2560716;56;1341;-90
2021/07/16 07:38:52;175769.00;0.59;304.20;0.00;0.00;0.62;;;;;23.00;3.80;;;;;;2557691;56;1952;-87
2021/07/16 07:41:19;238538.00;0.80;412.24;0.00;0.00;0.62;;;;;23.10;2.50;;;;;;2557742;56;1640;-88
2021/07/16 07:43:46;72722.00;0.24;126.46;0.00;0.00;0.62;;;;;22.90;4.40;;;;;;2557753;56;958;-88
2021/07/16 07:46:14;169378.00;0.56;293.20;0.00;0.00;0.62;;;;;23.40;3.00;;;;;;2558272;56;1276;-88
2021/07/16 07:48:42;0.00;0.00;0.62;0.00;0.00;0.62;;;;;23.70;1.10;;;;;;2557741;56;911;-87
2021/07/16 07:51:09;206682.00;0.69;357.42;0.00;0.00;0.62;;;;;23.60;1.30;;;;;;2557784;56;985;-88
2021/07/16 07:53:36;324277.00;1.08;559.65;68006.00;0.23;118.31;;;;;23.80;1.50;;;;;;2552532;56;1190;-88
2021/07/16 07:56:05;152825.00;0.51;264.68;0.00;0.00;0.62;;;;;23.80;1.00;;;;;;2553183;56;1305;-88
2021/07/16 07:58:32;0.00;0.00;0.62;0.00;0.00;0.62;;;;;23.90;1.00;;;;;;2547441;56;1001;-88
2021/07/16 08:00:58;178418.00;0.59;308.77;0.00;0.00;0.62;;;;;24.30;1.80;;;;;;2547600;56;1951;-87
2021/07/16 08:03:25;0.00;0.00;0.62;0.00;0.00;0.62;;;;;25.10;1.00;;;;;;2548393;56;1094;-87
2021/07/16 08:05:53;26111.00;0.09;45.85;0.00;0.00;0.62;;;;;26.20;1.00;;;;;;2548867;56;1292;-88
2021/07/16 08:08:20;0.00;0.00;0.62;0.00;0.00;0.62;;;;;27.20;1.00;;;;;;2548351;56;981;-86
2021/07/16 08:10:47;120623.00;0.40;209.16;0.00;0.00;0.62;;;;;28.20;1.00;;;;;;2554662;56;1035;-87
2021/07/16 08:13:15;0.00;0.00;0.62;0.00;0.00;0.62;;;;;28.80;1.00;;;;;;2566886;56;1075;-88
2021/07/16 08:15:42;201899.00;0.67;349.19;0.00;0.00;0.62;;;;;28.80;1.00;;;;;;2566714;55;1317;-90
2021/07/16 08:18:09;159654.00;0.53;276.44;0.00;0.00;0.62;;;;;28.70;1.00;;;;;;2578665;55;973;-88
2021/07/16 08:20:36;87290.00;0.29;151.63;0.00;0.00;0.62;;;;;28.50;1.00;;;;;;2578768;55;1898;-88
2021/07/16 08:23:03;174504.00;0.58;302.02;0.00;0.00;0.62;;;;;28.60;1.00;;;;;;2578816;55;994;-88
2021/07/16 08:25:34;171.00;0.00;0.92;0.00;0.00;0.62;;;;;28.20;1.00;;;;;;2569743;55;1429;-88
2021/07/16 08:28:01;131285.00;0.44;227.55;0.00;0.00;0.62;;;;;27.00;1.00;;;;;;2575766;55;1188;-90
2021/07/16 08:30:30;143198.00;0.48;248.08;0.00;0.00;0.62;;;;;26.60;1.00;;;;;;2578791;55;938;-86
2021/07/16 08:32:57;135181.00;0.45;234.26;0.00;0.00;0.62;;;;;25.90;1.00;;;;;;2578744;55;946;-87
2021/07/16 08:35:24;55044.00;0.18;95.91;0.00;0.00;0.62;;;;;25.50;1.00;;;;;;2578810;55;1409;-89
2021/07/16 08:37:51;0.00;0.00;0.62;0.00;0.00;0.62;;;;;24.80;1.00;;;;;;2578832;55;904;-89
2021/07/16 08:40:18;0.00;0.00;0.62;0.00;0.00;0.62;;;;;24.50;1.00;;;;;;2578807;55;1952;-90
2021/07/16 08:42:48;0.00;0.00;0.62;0.00;0.00;0.62;;;;;24.50;1.00;;;;;;2569830;55;946;-88
2021/07/16 08:45:15;389113.00;1.30;671.09;145396.00;0.48;251.87;;;;;24.90;1.00;;;;;;2565362;55;1316;-88
2021/07/16 08:52:45;0.00;0.00;0.62;0.00;0.00;0.62;;;;;24.50;1.00;;;;;;2571546;56;690;-90
2021/07/16 08:55:13;9006.00;0.03;16.23;0.00;0.00;0.62;;;;;24.10;1.00;;;;;;2571350;56;1725;-88
2021/07/16 08:57:40;0.00;0.00;0.62;0.00;0.00;0.62;;;;;24.80;1.00;;;;;;2573629;55;994;-89
2021/07/16 09:00:11;175802.00;0.59;304.26;0.00;0.00;0.62;;;;;25.30;1.00;;;;;;2571340;56;1897;-89
2021/07/16 09:02:51;0.00;0.00;0.62;0.00;0.00;0.62;;;;;25.90;1.00;;;;;;2573680;55;934;-89
2021/07/16 09:05:18;67145.00;0.22;116.83;0.00;0.00;0.62;;;;;26.10;1.00;;;;;;2573470;55;1742;-89
2021/07/16 09:12:58;0.00;0.00;0.62;0.00;0.00;0.62;;;;;25.90;1.00;;;;;;2576543;55;663;-88
2021/07/16 09:15:25;126001.00;0.42;218.43;0.00;0.00;0.62;;;;;26.40;1.00;;;;;;2578656;55;1408;-86
2021/07/16 09:20:28;0.00;0.00;0.62;0.00;0.00;0.62;;;;;26.30;1.00;;;;;;2575952;55;1922;-87
2021/07/16 09:23:12;153295.00;0.51;265.49;0.00;0.00;0.62;;;;;26.40;1.00;;;;;;2578675;55;965;-88
2021/07/16 09:25:42;163821.00;0.55;283.62;0.00;0.00;0.62;;;;;26.20;1.00;;;;;;2578664;55;1237;-89
2021/07/16 09:28:24;134853.00;0.45;233.70;0.00;0.00;0.62;;;;;26.20;1.00;;;;;;2572874;55;1116;-88
2021/07/16 09:30:51;171328.00;0.57;296.55;31195.00;0.10;54.65;;;;;26.20;1.00;;;;;;2562500;56;966;-86
2021/07/16 09:33:19;181491.00;0.60;314.06;71554.00;0.24;124.45;;;;;26.50;1.00;;;;;;2560280;56;1123;-88
2021/07/16 09:35:46;162555.00;0.54;281.44;0.00;0.00;0.62;;;;;26.00;1.00;;;;;;2562732;56;1415;-88
2021/07/16 09:45:59;0.00;0.00;0.62;0.00;0.00;0.62;;;;;25.70;1.00;;;;;;2576456;55;1267;-87
2021/07/16 10:01:06;0.00;0.00;0.62;0.00;0.00;0.62;;;;;24.10;1.00;;;;;;2576500;55;1918;-89
2021/07/16 10:08:37;19910.00;0.07;35.11;0.00;0.00;0.62;;;;;24.90;1.00;;;;;;2576475;55;687;-87
2021/07/16 12:24:24;17167.00;0.06;30.36;0.00;0.00;0.62;;;;;26.60;1.00;;;;;;2572107;56;414;-88
2021/07/16 12:29:30;82900.00;0.28;144.05;0.00;0.00;0.62;;;;;26.50;1.00;;;;;;2575367;55;1063;-88
2021/07/16 12:37:11;11833.00;0.04;21.12;0.00;0.00;0.62;;;;;25.70;1.00;;;;;;2571264;56;1338;-87
2021/07/16 12:42:15;169194.00;0.56;292.88;65129.00;0.22;113.34;;;;;24.90;1.00;;;;;;2570692;56;670;-85
2021/07/16 12:45:05;166847.00;0.56;288.84;69059.00;0.23;120.13;;;;;24.50;1.00;;;;;;2573027;55;1046;-87
2021/07/16 12:47:33;341901.00;1.14;589.94;66119.00;0.22;115.05;;;;;24.50;1.00;;;;;;2567998;56;1161;-88
2021/07/16 12:50:12;248527.00;0.83;429.42;73014.00;0.24;126.97;;;;;24.60;1.00;;;;;;2568414;56;1180;-90
2021/07/16 12:52:40;332177.00;1.11;573.23;71930.00;0.24;125.10;;;;;24.70;1.00;;;;;;2568324;56;1062;-89
2021/07/16 13:08:29;147819.00;0.49;256.05;0.00;0.00;0.62;;;;;24.00;1.00;;;;;;2576580;55;539;-88
2021/07/16 13:11:02;0.00;0.00;0.62;0.00;0.00;0.62;;;;;24.00;1.00;;;;;;2569662;55;1026;-89
2021/07/16 13:13:31;9643.00;0.03;17.33;0.00;0.00;0.62;;;;;24.10;1.00;;;;;;2578727;55;1045;-88
2021/07/16 13:20:54;159064.00;0.53;275.43;0.00;0.00;0.62;;;;;24.30;1.00;;;;;;2571307;56;1924;-88
2021/07/16 13:23:21;244154.00;0.81;421.90;0.00;0.00;0.62;;;;;24.30;1.00;;;;;;2573470;55;965;-87
2021/07/16 13:25:48;330531.00;1.10;570.40;41282.00;0.14;72.11;;;;;24.20;1.00;;;;;;2573258;55;1405;-87
2021/07/16 13:30:49;142597.00;0.48;247.05;0.00;0.00;0.62;;;;;24.30;1.00;;;;;;2571119;56;579;-87
2021/07/16 13:33:16;240144.00;0.80;415.00;0.00;0.00;0.62;;;;;24.50;1.00;;;;;;2570946;56;1134;-87
2021/07/16 13:35:43;253220.00;0.84;437.49;0.00;0.00;0.62;;;;;24.30;1.00;;;;;;2573261;55;1414;-87
2021/07/16 13:38:10;278824.00;0.93;481.52;0.00;0.00;0.62;;;;;24.00;1.00;;;;;;2573453;55;949;-86
2021/07/16 13:40:37;424517.00;1.42;731.96;65912.00;0.22;114.70;;;;;24.30;1.00;;;;;;2573386;55;1944;-87
2021/07/16 13:43:04;185688.00;0.62;321.28;0.00;0.00;0.62;;;;;25.00;1.00;;;;;;2573423;55;1086;-87
2021/07/16 13:45:31;270467.00;0.90;467.15;0.00;0.00;0.62;;;;;25.10;1.00;;;;;;2573299;55;1335;-87
2021/07/16 13:48:00;381398.00;1.27;657.83;745.00;0.00;1.91;;;;;25.40;1.00;;;;;;2557481;56;1098;-89
2021/07/16 13:50:27;249074.00;0.83;430.36;0.00;0.00;0.62;;;;;25.50;1.00;;;;;;2549006;56;1121;-89
2021/07/16 13:52:54;267177.00;0.89;461.49;0.00;0.00;0.62;;;;;25.10;1.00;;;;;;2549122;56;1077;-88
2021/07/16 13:55:21;195082.00;0.65;337.46;0.00;0.00;0.62;;;;;25.00;1.00;;;;;;2557416;56;1413;-88
2021/07/16 13:57:48;437608.00;1.46;754.47;31918.00;0.11;55.90;;;;;24.50;1.00;;;;;;2547277;56;1097;-87
2021/07/16 14:00:15;434209.00;1.45;748.62;61259.00;0.20;106.65;;;;;24.90;1.00;;;;;;2544145;56;1957;-88
2021/07/16 14:02:47;305700.00;1.02;527.72;0.00;0.00;0.62;;;;;25.20;1.00;;;;;;2547370;56;1066;-88
2021/07/16 14:05:16;86290.00;0.29;149.90;0.00;0.00;0.62;;;;;25.30;1.00;;;;;;2549429;56;1269;-88
2021/07/16 14:07:43;197853.00;0.66;342.23;0.00;0.00;0.62;;;;;24.90;1.00;;;;;;2562538;56;1137;-88
2021/07/16 14:10:12;226568.00;0.76;391.64;0.00;0.00;0.62;;;;;25.10;1.00;;;;;;2562303;56;1001;-88
2021/07/16 14:12:40;101717.00;0.34;176.54;0.00;0.00;0.62;;;;;24.80;1.00;;;;;;2547024;56;943;-90
2021/07/16 14:17:41;44897.00;0.15;78.36;0.00;0.00;0.62;;;;;24.60;1.00;;;;;;2570913;56;990;-86
2021/07/16 14:20:10;192759.00;0.64;333.46;0.00;0.00;0.62;;;;;25.10;1.00;;;;;;2556267;56;1914;-87
2021/07/16 14:25:11;0.00;0.00;0.62;0.00;0.00;0.62;;;;;25.60;1.00;;;;;;2575461;56;1314;-87
2021/07/16 14:27:40;187533.00;0.63;324.46;46597.00;0.16;81.30;;;;;25.50;1.00;;;;;;2574929;56;1173;-88
2021/07/16 14:30:08;235074.00;0.78;406.28;0.00;0.00;0.62;;;;;25.40;1.00;;;;;;2578262;55;1692;-87
2021/07/16 14:32:37;109562.00;0.37;190.07;0.00;0.00;0.62;;;;;25.20;1.00;;;;;;2578343;55;1062;-87
2021/07/16 14:35:10;65796.00;0.22;114.50;0.00;0.00;0.62;;;;;25.70;1.00;;;;;;2575418;55;1078;-87
2021/07/16 14:37:38;194688.00;0.65;336.78;0.00;0.00;0.62;;;;;25.90;1.00;;;;;;2567078;56;1049;-87
2021/07/16 14:40:15;171257.00;0.57;296.43;32628.00;0.11;57.13;;;;;26.00;1.00;;;;;;2564402;56;1959;-87
2021/07/16 14:47:55;0.00;0.00;0.62;0.00;0.00;0.62;;;;;25.20;1.00;;;;;;2574240;55;871;-87
2021/07/16 14:50:22;196394.00;0.65;339.72;51317.00;0.17;89.46;;;;;25.60;1.00;;;;;;2566710;56;1136;-87
2021/07/16 14:52:50;55617.00;0.19;96.90;0.00;0.00;0.62;;;;;25.70;1.00;;;;;;2566383;56;1097;-87
2021/07/16 14:55:22;197374.00;0.66;341.40;56210.00;0.19;97.92;;;;;26.10;1.00;;;;;;2563629;56;1283;-85
2021/07/16 14:57:49;192660.00;0.64;333.29;58562.00;0.20;101.99;;;;;26.40;1.00;;;;;;2566776;56;1110;-85
2021/07/16 15:00:17;183518.00;0.61;317.55;35423.00;0.12;61.97;;;;;26.40;1.00;;;;;;2558260;56;1905;-85
2021/07/16 15:02:44;99754.00;0.33;173.15;0.00;0.00;0.62;;;;;26.60;1.00;;;;;;2557157;56;1042;-86
2021/07/16 15:05:12;169123.00;0.56;292.76;13171.00;0.04;23.44;;;;;26.60;1.00;;;;;;2556951;56;1372;-86
2021/07/16 15:07:39;190759.00;0.64;330.02;49390.00;0.16;86.13;;;;;27.20;1.00;;;;;;2553664;56;1114;-85
2021/07/16 15:10:08;225743.00;0.75;390.22;60990.00;0.20;106.19;;;;;27.40;1.00;;;;;;2550918;56;1015;-88
2021/07/16 15:12:37;0.00;0.00;0.62;0.00;0.00;0.62;;;;;26.70;1.00;;;;;;2540819;56;1062;-87
2021/07/16 15:15:05;187134.00;0.62;323.77;48602.00;0.16;84.77;;;;;26.80;1.00;;;;;;2536089;56;1087;-86
2021/07/16 15:17:32;134112.00;0.45;232.42;0.00;0.00;0.62;;;;;27.10;1.00;;;;;;2535848;56;1137;-86
2021/07/16 15:19:59;109807.00;0.37;190.50;0.00;0.00;0.62;;;;;26.90;1.00;;;;;;2536426;56;1161;-86
2021/07/16 15:22:26;186122.00;0.62;322.03;0.00;0.00;0.62;;;;;26.80;1.00;;;;;;2536197;56;1977;-86
2021/07/16 15:24:53;193018.00;0.64;333.90;68621.00;0.23;119.38;;;;;27.00;1.00;;;;;;2536892;56;1178;-86
2021/07/16 15:27:20;66286.00;0.22;115.34;0.00;0.00;0.62;;;;;26.40;1.00;;;;;;2537727;56;1273;-86
2021/07/16 15:29:49;149698.00;0.50;259.29;0.00;0.00;0.62;;;;;25.90;1.00;;;;;;2551684;56;1174;-87
2021/07/16 15:32:15;150888.00;0.50;261.34;0.00;0.00;0.62;;;;;25.20;1.00;;;;;;2542138;56;1716;-86
2021/07/16 15:34:42;204429.00;0.68;353.55;13459.00;0.04;23.94;;;;;25.10;1.00;;;;;;2531344;56;1194;-86
2021/07/16 15:39:38;96554.00;0.32;167.62;26086.00;0.09;45.81;;;;;25.10;1.00;;;;;;2570910;56;599;-87
2021/07/16 15:47:18;60712.00;0.20;105.71;0.00;0.00;0.62;;;;;25.60;1.00;;;;;;2571147;55;1273;-87
2021/07/16 15:49:46;42003.00;0.14;73.35;0.00;0.00;0.62;;;;;25.30;1.00;;;;;;2561989;56;1654;-88
2021/07/16 15:52:13;217443.00;0.72;375.94;8158.00;0.03;14.76;;;;;25.30;1.00;;;;;;2562577;56;990;-88
2021/07/16 15:57:15;36497.00;0.12;63.83;0.00;0.00;0.62;;;;;25.30;1.00;;;;;;2575866;55;1351;-88
2021/07/16 15:59:44;197902.00;0.66;342.31;84984.00;0.28;147.65;;;;;25.50;1.00;;;;;;2562588;56;1090;-88
2021/07/16 16:02:11;184340.00;0.61;318.96;51909.00;0.17;90.49;;;;;25.80;1.00;;;;;;2562237;56;1913;-87
2021/07/16 16:04:39;171326.00;0.57;296.55;32537.00;0.11;56.97;;;;;25.90;1.00;;;;;;2552205;56;1019;-88
2021/07/16 16:07:06;201469.00;0.67;348.45;0.00;0.00;0.62;;;;;25.70;1.00;;;;;;2552294;56;1323;-87
2021/07/16 16:09:33;168399.00;0.56;291.51;0.00;0.00;0.62;;;;;26.00;1.00;;;;;;2548039;56;1225;-88
2021/07/16 16:12:00;71315.00;0.24;124.03;0.00;0.00;0.62;;;;;26.20;1.00;;;;;;2552567;56;1125;-86
2021/07/16 16:14:28;29053.00;0.10;50.94;0.00;0.00;0.62;;;;;26.20;1.00;;;;;;2552435;56;1192;-87
2021/07/16 16:16:55;194438.00;0.65;336.35;22232.00;0.07;39.14;;;;;26.10;1.00;;;;;;2549092;56;1376;-88
2021/07/16 16:19:22;191601.00;0.64;331.46;71674.00;0.24;124.65;;;;;26.40;1.00;;;;;;2562658;56;1126;-88
2021/07/16 16:21:51;108764.00;0.36;188.70;0.00;0.00;0.62;;;;;26.60;1.00;;;;;;2563258;56;1902;-87
2021/07/16 16:24:18;169954.00;0.57;294.19;0.00;0.00;0.62;;;;;26.50;1.00;;;;;;2563603;56;944;-88
2021/07/16 16:26:45;152678.00;0.51;264.42;0.00;0.00;0.62;;;;;26.30;1.00;;;;;;2567698;56;1347;-87
2021/07/16 16:29:12;87803.00;0.29;152.51;0.00;0.00;0.62;;;;;25.90;1.00;;;;;;2567650;56;1137;-88
2021/07/16 16:31:39;85136.00;0.28;147.91;0.00;0.00;0.62;;;;;26.20;1.00;;;;;;2567821;56;1082;-89
2021/07/16 16:34:07;202617.00;0.68;350.43;90913.00;0.30;157.88;;;;;26.30;1.00;;;;;;2568955;55;1164;-89
2021/07/16 16:36:34;215568.00;0.72;372.72;38344.00;0.13;67.02;;;;;26.20;1.00;;;;;;2578693;55;1414;-88
2021/07/16 16:39:04;181153.00;0.60;313.48;0.00;0.00;0.62;;;;;25.90;1.00;;;;;;2567539;56;1160;-87
2021/07/16 16:41:31;65226.00;0.22;113.51;0.00;0.00;0.62;;;;;25.80;1.00;;;;;;2562316;56;1965;-89
2021/07/16 16:51:30;76065.00;0.25;132.24;0.00;0.00;0.62;;;;;26.90;1.00;;;;;;2575334;55;1071;-86
2021/07/16 16:53:58;166294.00;0.55;287.88;0.00;0.00;0.62;;;;;26.70;1.00;;;;;;2577826;55;1079;-89
2021/07/16 17:06:27;41419.00;0.14;72.34;0.00;0.00;0.62;;;;;26.50;1.00;;;;;;2576673;56;1241;-90
2021/07/16 17:08:54;216943.00;0.72;375.08;0.00;0.00;0.62;;;;;26.80;1.00;;;;;;2567840;56;1123;-87
2021/07/16 17:21:24;37437.00;0.12;65.45;0.00;0.00;0.62;;;;;26.20;1.00;;;;;;2579966;55;1909;-86
2021/07/16 17:23:54;165585.00;0.55;286.66;0.00;0.00;0.62;;;;;26.40;1.00;;;;;;2571752;55;926;-87
2021/07/16 17:26:22;176615.00;0.59;305.66;37974.00;0.13;66.38;;;;;26.00;1.00;;;;;;2563699;55;1359;-90
2021/07/16 17:33:46;152367.00;0.51;263.89;42356.00;0.14;73.96;;;;;26.40;1.00;;;;;;2576263;55;613;-85
2021/07/16 17:41:20;167242.00;0.56;289.52;63707.00;0.21;110.88;;;;;26.60;1.00;;;;;;2571254;56;1882;-89
2021/07/16 17:43:47;366148.00;1.22;631.62;54919.00;0.18;95.69;;;;;27.10;1.00;;;;;;2573539;55;1101;-86
2021/07/16 17:46:14;407755.00;1.36;703.14;156599.00;0.52;271.18;;;;;27.60;1.00;;;;;;2573411;55;1412;-87
2021/07/16 17:51:19;215216.00;0.72;372.11;65183.00;0.22;113.44;;;;;27.40;1.00;;;;;;2576451;55;625;-87
2021/07/16 17:53:47;405906.00;1.35;699.96;70626.00;0.24;122.84;;;;;27.40;1.00;;;;;;2578535;55;1168;-88
2021/07/16 17:56:14;448791.00;1.50;773.70;62513.00;0.21;108.82;;;;;27.70;1.00;;;;;;2578646;55;1305;-90
2021/07/16 17:58:42;395317.00;1.32;681.75;62075.00;0.21;108.06;;;;;27.80;1.00;;;;;;2562743;56;1018;-91
2021/07/16 18:01:09;668553.00;2.23;1152.75;112124.00;0.37;194.49;;;;;27.90;1.00;;;;;;2554172;56;1907;-90
2021/07/16 18:03:43;524745.00;1.75;904.44;64763.00;0.22;112.71;;;;;28.10;1.00;;;;;;2562794;56;1016;-90
2021/07/16 18:08:48;132966.00;0.44;230.44;0.00;0.00;0.62;;;;;28.30;1.00;;;;;;2576565;55;571;-89
2021/07/16 18:11:16;275289.00;0.92;475.44;0.00;0.00;0.62;;;;;28.30;1.00;;;;;;2562614;56;903;-92
2021/07/16 18:13:45;226714.00;0.76;391.90;12378.00;0.04;22.07;;;;;28.20;1.00;;;;;;2562465;56;998;-90
2021/07/16 18:18:43;442676.00;1.48;763.19;0.00;0.00;0.62;;;;;27.60;1.00;;;;;;2575709;55;979;-89
2021/07/16 18:21:13;331632.00;1.11;572.29;41426.00;0.14;72.36;;;;;27.40;1.00;;;;;;2562573;56;1944;-88
2021/07/16 18:26:09;150668.00;0.50;260.96;0.00;0.00;0.62;;;;;27.70;1.00;;;;;;2568989;56;1162;-89
2021/07/16 18:41:08;145417.00;0.48;251.91;0.00;0.00;0.62;;;;;27.10;1.00;;;;;;2566158;56;1920;-86
2021/07/16 18:46:04;127950.00;0.43;221.79;0.00;0.00;0.62;;;;;27.00;1.00;;;;;;2572746;55;1284;-91
2021/07/16 19:31:20;2554.00;0.01;5.05;0.00;0.00;0.62;;;;;25.20;1.00;;;;;;2576372;55;535;-91
2021/07/16 19:56:28;125529.00;0.42;217.62;52065.00;0.17;90.76;;;;;24.10;1.00;;;;;;2576550;55;1362;-90
2021/07/16 20:24:28;234414.00;0.78;405.14;0.00;0.00;0.62;;;;;24.50;1.00;;;;;;2576452;55;578;-91
2021/07/16 20:26:55;80626.00;0.27;140.12;0.00;0.00;0.62;;;;;24.70;1.00;;;;;;2578639;55;1408;-90
2021/07/16 20:29:22;363913.00;1.21;627.77;0.00;0.00;0.62;;;;;24.80;1.00;;;;;;2569587;55;934;-89
2021/07/16 20:31:49;267988.00;0.89;462.88;75103.00;0.25;130.58;;;;;24.90;1.00;;;;;;2562656;56;990;-89
2021/07/16 20:34:16;267058.00;0.89;461.29;38215.00;0.13;66.80;;;;;24.90;1.00;;;;;;2552557;56;1003;-88
2021/07/16 20:36:43;214274.00;0.71;370.49;101839.00;0.34;176.75;;;;;24.90;1.00;;;;;;2552567;56;1367;-89
2021/07/16 20:41:41;74567.00;0.25;129.65;0.00;0.00;0.62;;;;;24.90;1.00;;;;;;2574487;55;1895;-89
2021/07/16 20:44:09;93249.00;0.31;161.92;25288.00;0.08;44.43;;;;;24.90;1.00;;;;;;2567886;56;1035;-87
2021/07/16 20:46:36;0.00;0.00;0.62;0.00;0.00;0.62;;;;;24.80;1.00;;;;;;2568067;55;1383;-90
2021/07/16 20:49:03;100153.00;0.33;173.84;0.00;0.00;0.62;;;;;24.80;1.00;;;;;;2557551;56;981;-89
2021/07/16 20:51:31;154368.00;0.51;267.33;0.00;0.00;0.62;;;;;24.70;1.00;;;;;;2557590;56;1024;-89
2021/07/16 20:53:58;128403.00;0.43;222.58;0.00;0.00;0.62;;;;;24.50;1.00;;;;;;2557548;56;939;-90
2021/07/16 20:56:26;184082.00;0.61;318.52;41754.00;0.14;72.92;;;;;23.90;1.00;;;;;;2547426;56;1326;-89
2021/07/16 20:58:54;195656.00;0.65;338.45;0.00;0.00;0.62;;;;;23.70;1.00;;;;;;2534887;56;1007;-91
2021/07/16 21:01:22;114901.00;0.38;199.29;0.00;0.00;0.62;;;;;23.80;1.00;;;;;;2547391;56;1907;-90
2021/07/16 21:03:49;69761.00;0.23;121.35;0.00;0.00;0.62;;;;;23.90;1.00;;;;;;2547173;56;1024;-89
2021/07/16 21:06:16;19409.00;0.06;34.25;0.00;0.00;0.62;;;;;24.00;1.00;;;;;;2548633;56;1392;-91
2021/07/16 21:08:43;127041.00;0.42;220.23;0.00;0.00;0.62;;;;;24.10;1.00;;;;;;2557786;56;1126;-91
2021/07/16 21:11:12;117622616.00;392.08;65917884.00;72209.00;0.24;125.58;;;;;24.10;1.00;;;;;;2557766;56;979;-88
2021/07/16 21:13:39;124424.00;0.41;215.71;0.00;0.00;0.62;;;;;23.30;1.00;;;;;;2553823;56;1077;-88
2021/07/16 21:16:07;80553.00;0.27;139.99;0.00;0.00;0.62;;;;;23.00;1.00;;;;;;2547473;56;1319;-89
2021/07/16 21:18:34;93586.00;0.31;162.50;0.00;0.00;0.62;;;;;22.90;1.20;;;;;;2543074;56;981;-91
2021/07/16 21:21:02;137697.00;0.46;238.60;0.00;0.00;0.62;;;;;23.00;1.00;;;;;;2547530;56;1021;-91
2021/07/16 21:23:29;190047.00;0.63;328.79;61663.00;0.21;107.35;;;;;23.10;1.00;;;;;;2537319;56;1967;-91
2021/07/16 21:25:56;161884.00;0.54;280.29;0.00;0.00;0.62;;;;;23.10;1.00;;;;;;2535354;56;1376;-91
2021/07/16 21:28:23;130117.00;0.43;225.53;0.00;0.00;0.62;;;;;23.30;1.00;;;;;;2532359;56;926;-89
2021/07/16 21:30:50;226902.00;0.76;392.22;0.00;0.00;0.62;;;;;23.40;1.00;;;;;;2527357;56;1115;-92
2021/07/16 21:33:18;132707.00;0.44;230.00;0.00;0.00;0.62;;;;;23.40;1.00;;;;;;2525685;56;1736;-90
2021/07/16 21:35:47;72812.00;0.24;126.62;0.00;0.00;0.62;;;;;23.30;1.00;;;;;;2537132;56;1587;-89
2021/07/16 21:38:14;0.00;0.00;0.62;0.00;0.00;0.62;;;;;23.30;1.10;;;;;;2552555;56;1223;-90
2021/07/16 21:40:41;56609.00;0.19;98.61;0.00;0.00;0.62;;;;;23.30;1.20;;;;;;2550979;56;1130;-89
2021/07/16 21:43:08;122554.00;0.41;212.49;0.00;0.00;0.62;;;;;23.70;1.20;;;;;;2561308;56;1974;-89
2021/07/16 21:45:35;0.00;0.00;0.62;0.00;0.00;0.62;;;;;23.90;1.00;;;;;;2565040;56;1356;-89
2021/07/16 21:48:01;305562.00;1.02;527.48;38342.00;0.13;67.02;;;;;23.60;2.10;;;;;;2563968;56;1633;-87
2021/07/16 21:50:30;284270.00;0.95;490.88;0.00;0.00;0.62;;;;;23.00;4.00;;;;;;2571171;55;1057;-89
2021/07/16 21:52:57;521610.00;1.74;899.04;99192.00;0.33;172.18;;;;;22.90;5.00;;;;;;2571365;55;1054;-91
2021/07/16 21:55:24;82154.00;0.27;142.76;0.00;0.00;0.62;;;;;23.00;4.30;;;;;;2573560;55;1261;-92
2021/07/16 21:57:51;71977.00;0.24;125.18;0.00;0.00;0.62;;;;;23.20;5.00;;;;;;2573540;55;982;-89
2021/07/16 22:00:20;176225.00;0.59;304.99;31944.00;0.11;55.95;;;;;23.40;3.50;;;;;;2573582;55;947;-92
2021/07/16 22:02:49;203997.00;0.68;352.80;0.00;0.00;0.62;;;;;23.50;4.70;;;;;;2570885;55;1943;-89
2021/07/16 22:05:17;193836.00;0.65;335.31;0.00;0.00;0.62;;;;;23.50;3.80;;;;;;2571297;55;1684;-90
2021/07/16 22:07:45;292305.00;0.97;504.69;29869.00;0.10;52.36;;;;;23.50;4.20;;;;;;2573588;55;910;-92
2021/07/16 22:10:13;234696.00;0.78;405.63;0.00;0.00;0.62;;;;;23.50;3.70;;;;;;2573615;55;986;-91
2021/07/16 22:12:41;159145.00;0.53;275.57;0.00;0.00;0.62;;;;;23.50;4.90;;;;;;2573513;55;1589;-89
2021/07/16 22:15:09;129470.00;0.43;224.42;0.00;0.00;0.62;;;;;23.50;5.50;;;;;;2573439;55;1638;-90
2021/07/16 22:17:36;4161.00;0.01;7.83;0.00;0.00;0.62;;;;;23.20;4.90;;;;;;2571323;55;1034;-91
2021/07/16 22:20:04;0.00;0.00;0.62;0.00;0.00;0.62;;;;;23.20;5.50;;;;;;2571323;55;1056;-89
2021/07/16 22:22:31;13015.00;0.04;23.17;0.00;0.00;0.62;;;;;23.10;5.90;;;;;;2573502;55;1950;-91
2021/07/16 22:24:59;0.00;0.00;0.62;0.00;0.00;0.62;;;;;23.30;3.10;;;;;;2571347;55;1064;-89
2021/07/16 22:27:26;0.00;0.00;0.62;0.00;0.00;0.62;;;;;23.50;4.20;;;;;;2573463;55;1289;-88
2021/07/16 22:29:53;29531.00;0.10;51.77;0.00;0.00;0.62;;;;;23.60;4.40;;;;;;2571352;55;1138;-89
2021/07/16 22:32:20;266526.00;0.89;460.37;22354.00;0.07;39.35;;;;;23.70;4.20;;;;;;2571287;55;1125;-89
2021/07/16 22:34:47;118786.00;0.40;205.99;0.00;0.00;0.62;;;;;23.60;4.00;;;;;;2571289;55;1138;-89
2021/07/16 22:37:15;45665.00;0.15;79.69;0.00;0.00;0.62;;;;;23.70;3.20;;;;;;2571271;55;1289;-89
2021/07/16 22:39:42;0.00;0.00;0.62;0.00;0.00;0.62;;;;;23.70;2.80;;;;;;2573507;55;1092;-90
2021/07/16 22:42:10;0.00;0.00;0.62;0.00;0.00;0.62;;;;;23.80;1.80;;;;;;2572130;55;1898;-88
2021/07/16 22:44:37;193182.00;0.64;334.19;0.00;0.00;0.62;;;;;23.70;3.20;;;;;;2576423;55;1042;-89
2021/07/16 22:47:04;267120.00;0.89;461.39;17404.00;0.06;30.77;;;;;23.60;3.40;;;;;;2576389;55;1358;-89
2021/07/16 22:49:32;0.00;0.00;0.62;0.00;0.00;0.62;;;;;23.70;2.30;;;;;;2576470;55;1102;-90
2021/07/16 22:51:59;171930.00;0.57;297.59;0.00;0.00;0.62;;;;;23.60;3.20;;;;;;2578522;55;1528;-92
2021/07/16 22:54:26;183906.00;0.61;318.22;51137.00;0.17;89.15;;;;;23.40;2.80;;;;;;2578635;55;1012;-90
2021/07/16 22:56:53;511121.00;1.70;880.97;36846.00;0.12;64.43;;;;;23.10;4.60;;;;;;2578620;55;1350;-91
2021/07/16 22:59:21;118991.00;0.40;206.34;0.00;0.00;0.62;;;;;23.10;4.30;;;;;;2576381;55;1512;-91
2021/07/16 23:01:48;91928.00;0.31;159.64;0.00;0.00;0.62;;;;;23.30;4.40;;;;;;2576417;55;1925;-89
2021/07/16 23:04:15;57133.00;0.19;99.52;0.00;0.00;0.62;;;;;23.30;3.70;;;;;;2576422;55;1081;-90
2021/07/16 23:06:44;161923.00;0.54;280.35;0.00;0.00;0.62;;;;;23.40;3.50;;;;;;2578610;55;1255;-89
2021/07/16 23:09:11;39119.00;0.13;68.36;0.00;0.00;0.62;;;;;23.50;3.00;;;;;;2578653;55;979;-90